Time;durP1;ratioP1;P1;durP2;ratioP2;P2;SDS_P1;SDS_P2;PMS_P1;PMS_P2;Temp;Humidity;BMP_temperature;BMP_pressure;BME280_temperature;BME280_humidity;BME280_pressure;Samples;Min_cycle;Max_cycle;Signal;HPM_P1;HPM_P2
2021/03/27 00:02:18;;;;;;;126.47;67.62;;;;;;;1.49;67.98;95141.09;1678955;84;21171;-56
2021/03/27 00:05:16;;;;;;;132.90;74.62;;;;;;;1.38;68.03;95134.86;1671599;85;21247;-56
2021/03/27 00:08:01;;;;;;;164.80;88.52;;;;;;;1.12;68.48;95133.72;1679084;85;22354;-57
2021/03/27 00:10:39;;;;;;;164.62;85.95;;;;;;;0.97;68.87;95128.59;1678896;84;21729;-56
2021/03/27 00:13:20;;;;;;;147.82;79.40;;;;;;;0.84;69.29;95132.74;1656140;85;21121;-60
2021/03/27 00:16:06;;;;;;;142.68;77.50;;;;;;;0.80;69.67;95127.30;1679078;85;21591;-58
2021/03/27 00:18:53;;;;;;;139.43;72.85;;;;;;;0.80;69.82;95131.95;1678959;85;21214;-55
2021/03/27 00:21:43;;;;;;;148.38;82.08;;;;;;;0.78;69.69;95128.84;1679000;85;21150;-56
2021/03/27 00:24:18;;;;;;;153.42;82.12;;;;;;;0.73;69.88;95128.61;1678887;85;21202;-56
2021/03/27 00:27:06;;;;;;;167.45;89.40;;;;;;;0.70;70.22;95133.98;1678919;85;21193;-56
2021/03/27 00:29:48;;;;;;;159.22;80.85;;;;;;;0.71;70.28;95127.41;1678961;85;21162;-56
2021/03/27 00:32:23;;;;;;;160.45;90.62;;;;;;;0.70;70.30;95125.30;1655538;85;21190;-57
2021/03/27 00:34:57;;;;;;;147.53;74.97;;;;;;;0.64;70.43;95129.52;1655904;85;21071;-56
2021/03/27 00:37:26;;;;;;;;;;;;;;;0.59;70.54;95131.19;1681586;84;21228;-57
2021/03/27 00:40:09;;;;;;;143.20;77.65;;;;;;;0.54;70.81;95122.63;1679132;85;20308;-61
2021/03/27 00:42:41;;;;;;;144.77;76.57;;;;;;;0.56;70.95;95117.65;1676996;84;21193;-57
2021/03/27 00:45:18;;;;;;;135.00;76.67;;;;;;;0.61;70.93;95124.06;1679191;85;21114;-56
2021/03/27 00:47:57;;;;;;;151.78;76.67;;;;;;;0.67;70.94;95124.70;1649281;86;21267;-57
2021/03/27 00:50:35;;;;;;;125.33;74.05;;;;;;;0.75;70.83;95121.48;1650061;87;21596;-58
2021/03/27 00:53:17;;;;;;;107.37;60.00;;;;;;;0.81;70.26;95125.38;1649571;86;21171;-56
2021/03/27 00:55:53;;;;;;;117.60;65.25;;;;;;;0.74;69.91;95121.27;1650313;87;21187;-57
2021/03/27 00:58:27;;;;;;;115.95;67.87;;;;;;;0.66;69.80;95115.02;1650222;86;21176;-56
2021/03/27 01:01:01;;;;;;;133.65;71.12;;;;;;;0.65;70.11;95119.45;1650077;86;21163;-57
2021/03/27 01:03:45;;;;;;;134.15;74.05;;;;;;;0.72;69.94;95118.93;1650142;87;21395;-56
2021/03/27 01:06:44;;;;;;;119.13;66.45;;;;;;;0.72;69.87;95124.91;1649989;85;21211;-57
2021/03/27 01:09:31;;;;;;;109.12;63.50;;;;;;;0.56;70.11;95115.70;1909210;74;22635;-60
2021/03/27 01:12:30;;;;;;;117.20;63.78;;;;;;;0.34;70.68;95115.89;1847041;77;21445;-57
2021/03/27 01:15:03;;;;;;;120.80;66.53;;;;;;;0.29;70.75;95121.65;1848872;77;21231;-57
2021/03/27 01:17:33;;;;;;;104.95;60.08;;;;;;;0.23;70.86;95119.85;1839557;77;21573;-56
2021/03/27 01:20:13;;;;;;;114.25;62.08;;;;;;;0.17;71.03;95121.35;1849062;77;21176;-56
2021/03/27 01:22:49;;;;;;;113.15;70.67;;;;;;;0.21;71.31;95112.69;1871732;76;27783;-55
2021/03/27 01:25:31;;;;;;;118.22;70.28;;;;;;;0.31;71.45;95117.99;1774615;80;21555;-56
2021/03/27 01:28:11;;;;;;;122.33;71.02;;;;;;;0.34;71.39;95130.20;1848889;77;21971;-56
2021/03/27 01:31:17;;;;;;;114.97;65.70;;;;;;;0.29;71.54;95122.44;1774501;80;21517;-61
2021/03/27 01:34:03;;;;;;;122.42;69.80;;;;;;;0.28;71.50;95123.59;1742405;82;21631;-56
2021/03/27 01:36:48;;;;;;;158.57;86.75;;;;;;;0.18;71.58;95124.26;1743757;82;21198;-55
2021/03/27 01:39:26;;;;;;;120.67;69.92;;;;;;;0.12;71.56;95125.75;1774597;80;21199;-55
2021/03/27 01:42:22;;;;;;;122.25;70.50;;;;;;;0.09;71.73;95125.15;1762200;80;22189;-59
2021/03/27 01:45:05;;;;;;;141.47;80.75;;;;;;;0.10;72.01;95121.29;1774478;80;21174;-56
2021/03/27 01:47:48;;;;;;;151.22;82.60;;;;;;;0.19;71.73;95113.64;1774574;80;21143;-55
2021/03/27 01:50:28;;;;;;;128.90;69.82;;;;;;;0.26;71.57;95120.45;1774485;80;21163;-55
2021/03/27 01:53:26;;;;;;;142.35;78.47;;;;;;;0.37;71.32;95125.99;1774558;80;21052;-58
2021/03/27 01:56:15;;;;;;;155.05;83.20;;;;;;;0.40;71.27;95122.53;1774507;80;21428;-58
2021/03/27 01:58:58;;;;;;;119.80;67.70;;;;;;;0.40;71.24;95123.30;1774413;80;21207;-57
2021/03/27 02:01:43;;;;;;;126.50;69.45;;;;;;;0.41;71.12;95126.80;1811462;79;21479;-60
2021/03/27 02:04:22;;;;;;;125.78;65.30;;;;;;;0.43;70.79;95125.25;1806785;78;21123;-58
2021/03/27 02:07:04;;;;;;;121.17;63.58;;;;;;;0.53;71.14;95121.88;1774599;80;21155;-55
2021/03/27 02:09:57;;;;;;;115.03;63.00;;;;;;;0.59;70.40;95125.78;1762724;80;21970;-56
2021/03/27 02:12:53;;;;;;;109.35;62.08;;;;;;;0.59;70.19;95120.37;1774392;80;21486;-58
2021/03/27 02:15:33;;;;;;;120.00;64.37;;;;;;;0.62;69.95;95129.08;1774588;80;21158;-56
2021/03/27 02:18:06;;;;;;;102.27;59.38;;;;;;;0.62;69.70;95134.50;1815723;79;21213;-56
2021/03/27 02:20:47;;;;;;;101.20;62.05;;;;;;;0.58;69.49;95132.34;1815758;79;21558;-55
2021/03/27 02:23:51;;;;;;;118.55;63.42;;;;;;;0.56;69.52;95135.24;1743891;82;22095;-56
2021/03/27 02:27:00;;;;;;;121.85;65.28;;;;;;;0.57;69.34;95138.91;1742436;82;21140;-55
2021/03/27 02:30:07;;;;;;;107.22;58.35;;;;;;;0.62;69.20;95133.14;1743773;82;21241;-56
2021/03/27 02:33:12;;;;;;;122.00;67.45;;;;;;;0.64;68.75;95139.55;1789298;79;21107;-56
2021/03/27 02:36:04;;;;;;;132.85;70.10;;;;;;;0.67;68.88;95144.21;1773926;80;21174;-59
2021/03/27 02:38:44;;;;;;;118.93;66.87;;;;;;;0.74;68.68;95146.41;1771088;80;21571;-57
2021/03/27 02:41:24;;;;;;;119.72;64.20;;;;;;;0.75;68.42;95145.25;1743012;82;21671;-57
2021/03/27 02:44:09;;;;;;;130.25;71.50;;;;;;;0.70;68.26;95144.81;1815354;79;21126;-56
2021/03/27 02:46:42;;;;;;;113.92;59.38;;;;;;;0.69;68.31;95152.17;1743313;82;21131;-56
2021/03/27 02:49:45;;;;;;;111.95;60.25;;;;;;;0.61;67.93;95144.36;1741698;82;21127;-57
2021/03/27 02:52:38;;;;;;;111.60;60.40;;;;;;;0.51;67.89;95145.03;1711112;82;21419;-56
2021/03/27 02:55:39;;;;;;;102.78;59.65;;;;;;;0.35;68.05;95145.29;1815095;79;21060;-56
2021/03/27 02:58:33;;;;;;;115.88;62.35;;;;;;;0.25;68.44;95147.30;1781235;79;21055;-61
2021/03/27 03:01:11;;;;;;;115.37;60.45;;;;;;;0.22;68.73;95147.29;1743196;82;21197;-56
2021/03/27 03:04:15;;;;;;;98.52;57.98;;;;;;;0.19;68.86;95153.45;1741941;82;21172;-58
2021/03/27 03:06:58;;;;;;;98.07;54.60;;;;;;;0.01;69.22;95155.95;1743310;82;22219;-56
2021/03/27 03:09:50;;;;;;;100.10;55.43;;;;;;;-0.14;69.91;95158.09;1773983;80;21202;-58
2021/03/27 03:12:36;;;;;;;96.12;57.33;;;;;;;-0.17;70.33;95153.42;1792109;79;21122;-56
2021/03/27 03:15:45;;;;;;;109.60;62.48;;;;;;;-0.23;70.44;95152.20;1774130;80;21115;-56
2021/03/27 03:18:53;;;;;;;96.60;59.03;;;;;;;-0.27;70.80;95147.30;1743190;82;21210;-56
2021/03/27 03:21:48;;;;;;;105.50;58.63;;;;;;;-0.22;71.05;95147.00;1814910;78;21225;-56
2021/03/27 03:24:45;;;;;;;93.05;56.30;;;;;;;-0.24;70.99;95154.70;1815237;79;21206;-57
2021/03/27 03:27:45;;;;;;;115.60;62.90;;;;;;;-0.29;71.03;95146.90;1743342;82;21175;-55
2021/03/27 03:30:30;;;;;;;110.03;58.02;;;;;;;-0.33;71.45;95150.14;1741844;82;21136;-58
2021/03/27 03:33:24;;;;;;;114.70;61.95;;;;;;;-0.24;70.92;95146.59;1743139;81;21171;-57
2021/03/27 03:36:11;;;;;;;115.32;60.95;;;;;;;-0.20;70.79;95155.52;1773098;79;22454;-56
2021/03/27 03:39:11;;;;;;;104.32;59.67;;;;;;;-0.13;70.48;95155.03;1773855;80;21151;-61
2021/03/27 03:41:52;;;;;;;112.75;67.15;;;;;;;-0.07;70.39;95155.48;1773877;80;21146;-59
2021/03/27 03:44:41;;;;;;;130.32;68.15;;;;;;;-0.07;70.36;95154.89;1773952;80;21543;-56
2021/03/27 03:47:40;;;;;;;123.00;65.95;;;;;;;-0.17;70.19;95156.13;1730556;82;21579;-61
2021/03/27 03:50:26;;;;;;;110.05;62.85;;;;;;;-0.22;70.36;95153.17;1815068;78;21339;-60
2021/03/27 03:53:24;;;;;;;118.25;64.07;;;;;;;-0.28;70.46;95156.56;1743170;82;21134;-61
2021/03/27 03:56:14;;;;;;;118.00;62.90;;;;;;;-0.34;70.27;95156.69;1741945;82;21135;-59
2021/03/27 03:59:22;;;;;;;121.33;65.32;;;;;;;-0.45;70.57;95159.85;1743212;82;21191;-57
2021/03/27 04:02:22;;;;;;;114.95;61.55;;;;;;;-0.51;70.76;95163.45;1815232;78;21578;-56
2021/03/27 04:04:58;;;;;;;114.88;64.40;;;;;;;-0.51;71.17;95158.04;1815197;79;23453;-56
2021/03/27 04:07:39;;;;;;;104.87;59.75;;;;;;;-0.49;71.11;95165.20;1814879;79;21206;-55
2021/03/27 04:10:18;;;;;;;92.33;54.03;;;;;;;-0.52;71.17;95157.05;1773714;79;21058;-55
2021/03/27 04:13:09;;;;;;;111.45;60.10;;;;;;;-0.57;71.12;95156.02;1815010;79;21170;-56
2021/03/27 04:15:46;;;;;;;112.77;61.20;;;;;;;-0.58;71.40;95159.87;1774063;80;21476;-56
2021/03/27 04:18:49;;;;;;;117.97;65.85;;;;;;;-0.50;71.23;95156.89;1740573;82;21225;-56
2021/03/27 04:21:22;;;;;;;125.30;67.63;;;;;;;-0.48;71.08;95159.21;1815341;79;21157;-56
2021/03/27 04:24:02;;;;;;;119.85;65.87;;;;;;;-0.43;70.96;95163.73;1742028;80;21403;-56
2021/03/27 04:26:47;;;;;;;118.93;66.75;;;;;;;-0.34;70.78;95164.80;1773783;80;21170;-56
2021/03/27 04:29:44;;;;;;;129.20;64.47;;;;;;;-0.21;70.68;95166.13;1764815;80;22284;-55
2021/03/27 04:32:43;;;;;;;127.62;67.00;;;;;;;-0.12;70.28;95166.60;1773833;80;21208;-55
2021/03/27 04:35:26;;;;;;;116.12;62.13;;;;;;;-0.02;69.99;95167.31;1712108;82;21143;-57
2021/03/27 04:38:11;;;;;;;112.03;64.05;;;;;;;0.03;70.01;95169.88;1815192;79;21131;-59
2021/03/27 04:40:47;;;;;;;112.28;64.37;;;;;;;0.13;69.81;95167.88;1773856;80;21080;-61
2021/03/27 04:43:34;;;;;;;103.92;60.60;;;;;;;0.21;69.45;95170.84;1815006;78;21155;-56
2021/03/27 04:46:31;;;;;;;98.92;59.90;;;;;;;0.22;69.12;95167.58;1773947;80;22108;-56
2021/03/27 04:49:18;;;;;;;112.83;59.75;;;;;;;0.19;69.53;95173.14;1773773;80;21207;-56
2021/03/27 04:51:54;;;;;;;132.82;70.15;;;;;;;0.23;69.42;95175.90;1773842;80;21183;-56
2021/03/27 04:54:43;;;;;;;136.68;72.92;;;;;;;0.26;69.19;95175.91;1773974;80;21124;-57
2021/03/27 04:57:37;;;;;;;129.12;73.33;;;;;;;0.22;68.86;95178.40;1755629;80;21598;-58
2021/03/27 05:00:26;;;;;;;125.15;71.35;;;;;;;0.16;69.01;95176.59;1815105;78;21986;-56
2021/03/27 05:03:27;;;;;;;137.45;73.15;;;;;;;0.14;69.15;95178.11;1814243;79;21154;-60
2021/03/27 05:06:19;;;;;;;116.80;58.58;;;;;;;0.15;69.39;95179.09;1715988;82;21067;-60
2021/03/27 05:09:14;;;;;;;90.90;51.25;;;;;;;0.14;69.42;95176.75;1741895;82;21658;-55
2021/03/27 05:12:05;;;;;;;80.65;47.73;;;;;;;0.07;69.76;95176.09;1743218;82;21159;-57
2021/03/27 05:15:12;;;;;;;108.40;60.17;;;;;;;0.06;70.13;95170.48;1814997;79;21391;-55
2021/03/27 05:17:50;;;;;;;110.85;61.42;;;;;;;0.21;70.36;95172.20;1814905;79;21121;-57
2021/03/27 05:20:30;;;;;;;120.15;69.32;;;;;;;0.40;70.29;95176.06;1815006;79;21142;-59
2021/03/27 05:23:16;;;;;;;225.82;103.35;;;;;;;0.59;69.91;95177.80;1813854;78;21501;-57
2021/03/27 05:26:30;;;;;;;95.32;56.37;;;;;;;0.75;69.63;95168.27;1812922;79;21187;-57
2021/03/27 05:29:17;;;;;;;122.53;68.15;;;;;;;0.81;69.04;95180.30;1761327;81;23547;-56
2021/03/27 05:31:56;;;;;;;85.77;49.05;;;;;;;0.68;69.19;95169.57;1761211;81;21205;-56
2021/03/27 05:34:32;;;;;;;70.92;42.38;;;;;;;0.64;69.25;95175.53;1731050;82;21166;-60
2021/03/27 05:37:18;;;;;;;96.63;55.83;;;;;;;0.52;69.36;95170.39;1761297;81;21197;-59
2021/03/27 05:39:57;;;;;;;84.25;47.40;;;;;;;0.39;69.62;95168.33;1731102;82;21242;-57
2021/03/27 05:42:40;;;;;;;76.33;47.38;;;;;;;0.36;69.88;95173.11;1761293;81;21213;-59
2021/03/27 05:45:52;;;;;;;71.55;44.40;;;;;;;0.39;70.09;95170.45;1731004;82;21084;-58
2021/03/27 05:48:58;;;;;;;88.40;53.08;;;;;;;0.48;69.98;95165.52;1761330;81;21178;-56
2021/03/27 05:52:04;;;;;;;90.25;51.88;;;;;;;0.54;69.88;95172.14;1729385;82;21752;-58
2021/03/27 05:54:47;;;;;;;101.58;55.73;;;;;;;0.65;70.04;95176.30;1761327;81;21131;-57
2021/03/27 05:57:42;;;;;;;107.50;65.97;;;;;;;0.71;70.09;95164.75;1731195;82;23533;-56
2021/03/27 06:00:34;;;;;;;108.47;63.78;;;;;;;0.73;70.16;95169.22;1761155;81;21181;-59
2021/03/27 06:03:43;;;;;;;123.65;70.97;;;;;;;0.74;70.39;95164.00;1731043;82;21649;-57
2021/03/27 06:06:37;;;;;;;99.55;60.88;;;;;;;0.81;70.65;95169.46;1761248;81;21626;-59
2021/03/27 06:09:51;;;;;;;101.62;63.38;;;;;;;1.05;70.48;95172.96;1731335;82;21590;-57
2021/03/27 06:12:44;;;;;;;94.58;58.08;;;;;;;1.25;70.31;95170.75;1761556;81;21220;-57
2021/03/27 06:15:57;;;;;;;97.72;62.70;;;;;;;1.53;70.18;95170.94;1731095;82;21158;-58
2021/03/27 06:19:17;;;;;;;87.45;53.08;;;;;;;1.70;69.41;95162.12;1761533;81;21081;-57
2021/03/27 06:22:24;;;;;;;136.00;70.83;;;;;;;1.88;69.00;95169.95;1729397;82;21217;-57
2021/03/27 06:25:23;;;;;;;103.05;59.88;;;;;;;2.04;68.71;95164.19;1732410;81;21126;-55
2021/03/27 06:28:17;;;;;;;88.40;54.60;;;;;;;2.18;68.32;95166.95;1722178;81;21918;-56
2021/03/27 06:31:10;;;;;;;;;;;;;;;2.23;67.98;95166.01;1783731;80;21190;-56
2021/03/27 06:33:59;;;;;;;84.15;47.08;;;;;;;2.30;67.85;95159.23;1781418;80;20258;-57
2021/03/27 06:37:00;;;;;;;107.00;63.98;;;;;;;2.40;67.64;95152.27;1781160;80;21083;-61
2021/03/27 06:39:52;;;;;;;107.58;59.00;;;;;;;2.53;67.44;95156.94;1780722;80;21638;-57
2021/03/27 06:43:04;;;;;;;93.27;53.17;;;;;;;2.68;67.11;95158.52;1781539;80;21399;-56
2021/03/27 06:45:53;;;;;;;89.05;52.83;;;;;;;2.77;66.86;95150.78;1781191;80;21202;-57
2021/03/27 06:48:53;;;;;;;83.75;50.10;;;;;;;2.96;66.71;95156.39;1781168;80;21164;-57
2021/03/27 06:51:39;;;;;;;70.40;44.25;;;;;;;3.20;65.77;95159.11;1781286;80;21182;-58
2021/03/27 06:54:29;;;;;;;94.10;50.67;;;;;;;3.44;64.78;95164.33;1781322;80;21084;-59
2021/03/27 06:57:39;;;;;;;93.97;56.50;;;;;;;3.62;64.58;95167.19;1781331;80;21358;-59
2021/03/27 07:00:47;;;;;;;71.55;45.25;;;;;;;3.73;64.26;95155.09;1781436;80;21503;-58
2021/03/27 07:03:47;;;;;;;79.80;47.25;;;;;;;3.84;64.01;95157.22;1781384;80;21576;-57
2021/03/27 07:06:47;;;;;;;84.70;46.40;;;;;;;3.98;63.45;95149.01;1780837;80;21654;-58
2021/03/27 07:09:22;;;;;;;86.60;47.40;;;;;;;4.10;62.70;95149.94;1787960;79;21169;-57
2021/03/27 07:12:23;;;;;;;70.90;42.35;;;;;;;4.23;62.24;95145.58;1812079;79;21197;-57
2021/03/27 07:15:18;;;;;;;87.20;49.03;;;;;;;4.44;61.80;95154.99;1814774;79;21106;-60
2021/03/27 07:18:04;;;;;;;105.37;52.95;;;;;;;4.59;61.11;95145.56;1815180;79;21186;-58
2021/03/27 07:20:55;;;;;;;96.63;50.83;;;;;;;4.72;60.68;95146.66;1815225;79;21166;-55
2021/03/27 07:23:44;;;;;;;71.10;42.43;;;;;;;4.77;60.19;95143.50;1779859;79;21630;-58
2021/03/27 07:27:10;;;;;;;91.40;42.78;;;;;;;4.87;59.65;95148.11;1815247;79;21370;-58
2021/03/27 07:30:02;;;;;;;69.53;38.50;;;;;;;5.00;59.46;95139.61;1815354;79;21103;-63
2021/03/27 07:32:58;;;;;;;69.55;38.10;;;;;;;5.15;58.64;95135.59;1815147;78;22259;-58
2021/03/27 07:35:56;;;;;;;59.35;35.75;;;;;;;5.28;58.25;95133.94;1815192;79;21071;-61
2021/03/27 07:39:07;;;;;;;73.60;34.23;;;;;;;5.43;58.03;95138.09;1815250;79;21098;-58
2021/03/27 07:41:44;;;;;;;52.85;32.23;;;;;;;5.63;57.67;95133.59;1791843;79;21205;-58
2021/03/27 07:44:29;;;;;;;58.38;32.05;;;;;;;5.80;56.30;95131.30;1815224;79;21142;-59
2021/03/27 07:47:39;;;;;;;42.03;27.73;;;;;;;5.91;55.90;95130.56;1815279;78;21086;-59
2021/03/27 07:50:19;;;;;;;42.35;25.68;;;;;;;6.06;55.58;95122.39;1720573;83;21088;-57
2021/03/27 07:53:19;;;;;;;47.13;28.27;;;;;;;6.33;55.39;95126.72;1722294;83;21242;-59
2021/03/27 07:56:27;;;;;;;49.88;28.77;;;;;;;6.58;54.01;95120.92;1785263;79;21429;-58
2021/03/27 07:59:16;;;;;;;52.50;30.12;;;;;;;6.74;53.52;95115.00;1814221;79;21120;-60
2021/03/27 08:02:28;;;;;;;62.35;32.33;;;;;;;6.93;53.01;95115.72;1815041;78;21182;-60
2021/03/27 08:05:37;;;;;;;56.33;32.35;;;;;;;7.09;52.81;95113.88;1815146;79;21079;-58
2021/03/27 08:08:27;;;;;;;60.52;30.52;;;;;;;7.31;52.36;95112.94;1815388;79;21115;-57
2021/03/27 08:11:49;;;;;;;57.60;31.70;;;;;;;7.53;51.86;95112.12;1815246;79;21421;-57
2021/03/27 08:14:35;;;;;;;49.30;29.75;;;;;;;7.72;51.42;95110.02;1785481;79;21155;-57
2021/03/27 08:17:27;;;;;;;63.45;34.78;;;;;;;7.96;50.98;95110.16;1791020;79;21151;-57
2021/03/27 08:20:18;;;;;;;65.78;33.78;;;;;;;8.15;50.53;95105.27;1814960;79;21162;-60
2021/03/27 08:23:22;;;;;;;62.23;32.80;;;;;;;8.42;51.04;95099.04;1815001;79;21150;-58
2021/03/27 08:26:07;;;;;;;66.70;30.88;;;;;;;8.72;49.84;95102.89;1815005;78;21198;-58
2021/03/27 08:29:41;;;;;;;58.30;31.12;;;;;;;8.99;49.18;95104.20;1815024;78;21064;-58
2021/03/27 08:32:18;;;;;;;57.15;31.52;;;;;;;9.14;49.01;95097.77;1814058;78;21153;-59
2021/03/27 08:35:23;;;;;;;57.55;33.18;;;;;;;9.40;48.71;95098.11;1814996;79;21138;-58
2021/03/27 08:38:08;;;;;;;51.65;32.00;;;;;;;9.54;47.72;95097.14;1785951;79;21126;-58
2021/03/27 08:41:33;;;;;;;56.15;30.37;;;;;;;9.64;47.29;95092.58;1815166;78;22190;-56
2021/03/27 08:44:29;;;;;;;44.50;30.32;;;;;;;9.76;46.94;95096.00;1815110;79;21706;-58
2021/03/27 08:47:08;;;;;;;48.25;29.50;;;;;;;10.05;47.25;95099.53;1815197;79;21526;-60
2021/03/27 08:50:17;;;;;;;70.15;30.02;;;;;;;10.30;46.80;95091.34;1813472;79;21082;-58
2021/03/27 08:53:19;;;;;;;77.45;31.52;;;;;;;10.51;46.60;95090.75;1815036;79;21158;-58
2021/03/27 08:56:33;;;;;;;60.28;28.77;;;;;;;10.81;47.11;95083.49;1815040;79;21185;-57
2021/03/27 08:59:10;;;;;;;57.25;28.07;;;;;;;11.10;46.46;95081.41;1815072;79;21205;-58
2021/03/27 09:01:56;;;;;;;43.58;26.40;;;;;;;11.39;45.33;95072.98;1815058;79;21084;-63
2021/03/27 09:04:52;;;;;;;48.17;30.05;;;;;;;11.51;45.47;95066.06;1815103;79;21126;-64
2021/03/27 09:07:54;;;;;;;50.52;29.87;;;;;;;11.64;46.13;95066.84;1771845;80;21614;-57
2021/03/27 09:10:41;;;;;;;45.48;29.00;;;;;;;11.85;45.45;95066.09;1771985;81;21209;-59
2021/03/27 09:13:33;;;;;;;50.12;30.43;;;;;;;12.06;43.51;95057.06;1804820;79;21058;-58
2021/03/27 09:16:38;;;;;;;36.40;25.35;;;;;;;12.19;44.14;95059.16;1814948;79;21167;-57
2021/03/27 09:19:31;;;;;;;55.15;30.85;;;;;;;12.32;43.66;95048.83;1814919;79;21096;-64
2021/03/27 09:22:26;;;;;;;47.85;29.20;;;;;;;12.35;43.39;95046.55;1814812;79;21197;-56
2021/03/27 09:25:11;;;;;;;49.10;28.85;;;;;;;12.39;43.26;95055.45;1796693;79;21275;-59
2021/03/27 09:27:57;;;;;;;129.72;40.35;;;;;;;12.50;43.86;95047.55;1791416;79;21083;-61
2021/03/27 09:30:39;;;;;;;59.75;32.90;;;;;;;12.73;43.95;95042.91;1815042;79;21555;-63
2021/03/27 09:33:34;;;;;;;50.00;28.80;;;;;;;13.07;43.69;95040.01;1815093;78;21090;-58
2021/03/27 09:36:48;;;;;;;41.63;28.87;;;;;;;13.50;44.33;95037.03;1814700;79;21170;-57
2021/03/27 09:39:32;;;;;;;47.98;28.90;;;;;;;13.95;43.26;95034.28;1815154;79;21194;-57
2021/03/27 09:42:19;;;;;;;46.13;30.02;;;;;;;14.44;43.25;95017.66;1889321;76;22188;-56
2021/03/27 09:45:22;;;;;;;48.30;29.63;;;;;;;14.73;40.65;95024.19;1859355;77;21171;-56
2021/03/27 09:48:27;;;;;;;49.33;28.32;;;;;;;14.97;41.35;95020.86;1860275;77;21194;-57
2021/03/27 09:51:20;;;;;;;40.50;26.07;;;;;;;15.28;41.27;95017.17;1857706;77;21093;-65
2021/03/27 09:53:57;;;;;;;;;;;;;;;15.55;38.93;95007.95;1863106;77;21541;-58
2021/03/27 09:56:40;;;;;;;38.95;25.50;;;;;;;15.84;38.37;95008.80;1859947;77;20225;-61
2021/03/27 09:59:26;;;;;;;39.80;25.97;;;;;;;16.19;38.72;95008.35;1860250;77;21084;-57
2021/03/27 10:02:25;;;;;;;44.53;26.45;;;;;;;16.61;37.58;95013.83;1859862;77;21357;-59
2021/03/27 10:05:05;;;;;;;26.45;18.42;;;;;;;16.98;36.29;95012.16;1827739;77;20966;-59
2021/03/27 10:07:44;;;;;;;30.12;19.87;;;;;;;17.37;34.30;95022.49;1860336;77;21561;-58
2021/03/27 10:10:27;;;;;;;38.50;21.00;;;;;;;17.67;34.10;95008.63;1828075;77;21131;-61
2021/03/27 10:13:11;;;;;;;;;;;;;;;18.00;33.29;95016.00;1863098;77;21044;-59
2021/03/27 10:15:50;;;;;;;33.30;19.55;;;;;;;18.29;32.67;95003.45;1860237;77;21189;-62
2021/03/27 10:18:53;;;;;;;31.15;20.60;;;;;;;18.65;32.14;95008.36;1860150;77;21156;-61
2021/03/27 10:21:27;;;;;;;28.02;19.92;;;;;;;19.01;31.40;95006.27;1860137;77;21132;-59
2021/03/27 10:24:34;;;;;;;37.00;19.98;;;;;;;19.32;30.42;95004.89;1858325;77;21076;-60
2021/03/27 10:27:23;;;;;;;28.98;18.25;;;;;;;19.57;29.66;94999.83;1860068;77;21125;-58
2021/03/27 10:30:28;;;;;;;26.85;17.95;;;;;;;19.93;29.49;95003.19;1860092;77;21568;-59
2021/03/27 10:33:17;;;;;;;;;;;;;;;20.22;28.23;95004.23;1833053;77;21096;-62
2021/03/27 10:35:53;;;;;;;34.20;19.17;;;;;;;20.35;27.61;94994.75;1789866;80;20292;-59
2021/03/27 10:39:00;;;;;;;35.63;18.48;;;;;;;20.42;28.06;94997.04;1788485;80;21191;-60
2021/03/27 10:41:45;;;;;;;30.37;19.27;;;;;;;20.64;27.33;94991.48;1693867;80;21233;-59
2021/03/27 10:44:53;;;;;;;32.53;20.30;;;;;;;20.74;27.13;94987.19;1785491;80;21369;-59
2021/03/27 10:47:38;;;;;;;28.52;19.05;;;;;;;20.84;26.86;94979.47;1785491;80;21161;-58
2021/03/27 10:50:30;;;;;;;41.25;18.73;;;;;;;20.95;26.77;94977.31;1785609;80;21180;-62
2021/03/27 10:53:37;;;;;;;27.35;18.40;;;;;;;21.09;26.71;94988.23;1785016;80;21195;-57
2021/03/27 10:56:36;;;;;;;24.77;17.12;;;;;;;20.84;27.05;94982.27;1784838;80;21196;-58
2021/03/27 10:59:33;;;;;;;31.17;17.52;;;;;;;21.06;27.06;94980.86;1784916;80;21212;-58
2021/03/27 11:02:24;;;;;;;22.35;17.62;;;;;;;21.39;26.24;94985.03;1784839;80;21168;-59
2021/03/27 11:05:07;;;;;;;31.75;18.62;;;;;;;21.50;26.14;94973.05;1785024;80;21105;-58
2021/03/27 11:08:07;;;;;;;24.65;18.60;;;;;;;21.83;25.75;94973.00;1785105;80;21556;-57
2021/03/27 11:10:53;;;;;;;26.42;17.80;;;;;;;22.02;25.69;94972.54;1784533;80;21597;-60
2021/03/27 11:14:05;;;;;;;34.45;18.15;;;;;;;22.22;25.13;94974.34;1752488;81;21202;-62
2021/03/27 11:16:54;;;;;;;25.00;17.35;;;;;;;21.80;25.68;94969.83;1752804;81;21170;-57
2021/03/27 11:20:18;;;;;;;27.70;19.20;;;;;;;21.12;26.11;94963.42;1752584;81;21109;-56
2021/03/27 11:23:31;;;;;;;21.35;16.25;;;;;;;20.73;26.94;94954.91;1752657;81;21181;-58
2021/03/27 11:26:31;;;;;;;22.07;17.25;;;;;;;20.56;26.88;94954.87;1752792;80;21177;-57
2021/03/27 11:29:33;;;;;;;23.60;17.32;;;;;;;20.79;26.92;94952.86;1752929;81;21206;-58
2021/03/27 11:32:22;;;;;;;39.35;19.57;;;;;;;20.71;27.02;94956.80;1732581;81;21185;-58
2021/03/27 11:34:59;;;;;;;28.25;20.37;;;;;;;20.15;27.71;94961.39;1753071;80;21195;-56
2021/03/27 11:37:32;;;;;;;23.15;18.15;;;;;;;19.56;28.45;94960.63;1753041;81;21070;-64
2021/03/27 11:40:34;;;;;;;25.37;18.57;;;;;;;19.12;29.03;94957.55;1752939;80;21731;-57
2021/03/27 11:43:26;;;;;;;25.52;19.70;;;;;;;19.03;29.22;94956.98;1779878;80;26198;-58
2021/03/27 11:46:09;;;;;;;23.85;17.52;;;;;;;18.95;29.10;94956.67;1747139;82;21530;-63
2021/03/27 11:48:59;;;;;;;31.93;20.23;;;;;;;18.76;29.34;94961.09;1721194;81;21144;-58
2021/03/27 11:51:50;;;;;;;29.67;18.23;;;;;;;18.46;29.88;94961.20;1765732;79;21517;-58
2021/03/27 11:54:29;;;;;;;45.40;19.50;;;;;;;18.14;30.04;94963.00;1766618;80;21162;-72
2021/03/27 11:57:49;;;;;;;42.43;19.87;;;;;;;17.88;30.69;94962.22;1765693;81;21902;-61
2021/03/27 12:01:00;;;;;;;27.80;17.98;;;;;;;17.62;30.51;94971.77;1757379;81;21192;-60
2021/03/27 12:03:30;;;;;;;25.43;17.12;;;;;;;17.29;31.03;94952.56;1763510;81;21169;-62
2021/03/27 12:06:38;;;;;;;57.23;26.70;;;;;;;17.17;31.36;94952.91;1871689;75;28418;-58
2021/03/27 12:09:30;;;;;;;38.10;19.62;;;;;;;17.12;31.33;94962.69;1774758;80;21198;-57
2021/03/27 12:12:13;;;;;;;32.30;20.90;;;;;;;16.99;31.41;94955.93;1772711;81;21216;-60
2021/03/27 12:14:56;;;;;;;37.00;19.57;;;;;;;16.74;31.89;94951.01;1774636;80;21174;-57
2021/03/27 12:17:48;;;;;;;40.20;21.00;;;;;;;16.54;32.24;94955.11;1773183;81;21583;-61
2021/03/27 12:20:47;;;;;;;31.80;18.85;;;;;;;16.39;32.97;94954.34;1774371;80;21617;-58
2021/03/27 12:23:32;;;;;;;32.17;20.20;;;;;;;16.23;32.97;94949.23;1771947;81;21171;-59
2021/03/27 12:26:24;;;;;;;30.17;18.00;;;;;;;16.12;33.03;94945.50;1774609;80;22122;-57
2021/03/27 12:29:04;;;;;;;25.85;17.82;;;;;;;16.10;33.24;94944.58;1774519;80;21520;-65
2021/03/27 12:32:14;;;;;;;30.72;19.15;;;;;;;15.97;33.66;94951.66;1764372;81;21183;-58
2021/03/27 12:34:50;;;;;;;113.20;70.85;;;;;;;15.81;33.75;94941.78;1774500;80;21139;-59
2021/03/27 12:37:55;;;;;;;86.28;46.75;;;;;;;15.74;34.38;94953.23;1742306;82;21164;-57
2021/03/27 12:40:53;;;;;;;66.47;46.00;;;;;;;15.73;34.74;94942.63;1778652;80;21373;-63
2021/03/27 12:43:30;;;;;;;69.60;29.37;;;;;;;15.71;34.48;94941.70;1772830;80;21421;-59
2021/03/27 12:46:19;;;;;;;46.42;25.23;;;;;;;15.75;34.98;94935.98;1774133;80;21171;-59
2021/03/27 12:49:33;;;;;;;41.00;25.00;;;;;;;15.84;35.08;94935.28;1750274;80;21219;-58
2021/03/27 12:52:45;;;;;;;47.88;25.43;;;;;;;15.90;36.70;94938.91;1810302;79;21154;-61
2021/03/27 12:55:48;;;;;;;51.37;26.95;;;;;;;15.90;37.41;94941.69;1783206;80;23467;-62
2021/03/27 12:58:22;;;;;;;54.45;25.32;;;;;;;15.92;37.84;94943.36;1783185;80;21193;-57
2021/03/27 13:00:59;;;;;;;44.42;24.77;;;;;;;15.91;38.27;94948.77;1783228;80;21110;-58
2021/03/27 13:03:47;;;;;;;42.08;25.90;;;;;;;15.94;37.85;94942.27;1717615;82;21088;-58
2021/03/27 13:06:29;;;;;;;43.23;27.58;;;;;;;15.91;37.79;94948.77;1706087;83;22298;-57
2021/03/27 13:09:15;;;;;;;45.40;25.68;;;;;;;15.79;37.65;94944.27;1703609;82;21219;-59
2021/03/27 13:11:51;;;;;;;39.13;23.25;;;;;;;15.71;38.63;94944.48;1705057;84;21625;-56